North Benton, Ohio
Current Conditions -  °F | °C
As of 6:00 PM on Thursday 18 Dec 2014 (Local Time) from KPOV Reporting Station
Overcast Overcast  
Wind Chill: 22°   Ceiling: 1600
Heat Index: 29°   Visibility: 10mi
Dew Point: 22°   Wind: 7mph
Humidity: 76%   Direction: 250°WSW
Pressure: 30.15"   Gusts: NA
Location:  40.98°N, 81.01°W
Report Text: KPOV 182300Z AUTO 25006KT 10SM OVC016 M02/M05 A3015 RMK AO2 T10171054
Loading
Personal Weather Stations






























Interactive Weather Map New forecast layout! Learn more

10-Day Weather Forecast

Advertisements
Track Severe Weather on mobile